createdAt,value
2019-05-17T00:00:01.801Z,6.0336
2019-05-17T00:00:11.506Z,6.0135
2019-05-17T00:00:21.164Z,6.0034
2019-05-17T00:00:30.855Z,5.9732
2019-05-17T00:00:40.515Z,5.9631
2019-05-17T00:00:50.175Z,5.9329
2019-05-17T00:01:00.846Z,5.9128
2019-05-17T00:01:10.544Z,5.8926
2019-05-17T00:01:21.178Z,5.8624
2019-05-17T00:01:30.848Z,5.8322
2019-05-17T00:01:40.568Z,5.8221
2019-05-17T00:01:50.219Z,5.8121
2019-05-17T00:01:59.895Z,5.8322
2019-05-17T00:02:09.594Z,5.8221
2019-05-17T00:02:21.434Z,5.8524
2019-05-17T00:02:31.125Z,5.9027
2019-05-17T00:02:40.809Z,5.9027
2019-05-17T00:02:50.505Z,5.9430
2019-05-17T00:03:00.155Z,5.9631
2019-05-17T00:03:09.840Z,5.9430
2019-05-17T00:03:21.684Z,5.9329
2019-05-17T00:03:31.354Z,5.9329
2019-05-17T00:03:39.895Z,5.9329
2019-05-17T00:04:00.381Z,5.9027
2019-05-17T00:04:10.335Z,5.9128
2019-05-17T00:04:20.027Z,5.9027
2019-05-17T00:04:29.694Z,5.9027
2019-05-17T00:04:41.556Z,5.9631
2019-05-17T00:05:00.885Z,6.0336
2019-05-17T00:05:10.539Z,6.0336
2019-05-17T00:05:20.195Z,6.0437
2019-05-17T00:05:29.859Z,6.0638
2019-05-17T00:05:41.738Z,6.0437
2019-05-17T00:06:00.135Z,6.0135
2019-05-17T00:06:09.817Z,6.0135
2019-05-17T00:06:21.697Z,6.0034
2019-05-17T00:06:31.425Z,6.0034
2019-05-17T00:06:50.704Z,5.9631
2019-05-17T00:07:00.365Z,5.9430
2019-05-17T00:07:10.059Z,5.9631
2019-05-17T00:07:20.744Z,5.9732
2019-05-17T00:07:30.437Z,5.9430
2019-05-17T00:07:40.307Z,5.9933
2019-05-17T00:07:59.895Z,6.0034
2019-05-17T00:08:09.729Z,6.0034
2019-05-17T00:08:31.915Z,5.9933
2019-05-17T00:08:34.537Z,5.9732
2019-05-17T00:08:40.704Z,5.9732
2019-05-17T00:08:50.390Z,5.9329
2019-05-17T00:09:00.018Z,5.9128
2019-05-17T00:09:10.653Z,5.9128
2019-05-17T00:09:20.328Z,5.8926
2019-05-17T00:09:30.296Z,5.8524
2019-05-17T00:09:39.950Z,5.8524
2019-05-17T00:09:49.636Z,5.8524
2019-05-17T00:10:01.493Z,5.8221
2019-05-17T00:10:09.966Z,5.8322
2019-05-17T00:10:19.620Z,5.8121
2019-05-17T00:10:30.291Z,5.8121
2019-05-17T00:10:39.970Z,5.7919
2019-05-17T00:10:49.606Z,5.7919
2019-05-17T00:11:01.452Z,5.7819
2019-05-17T00:11:11.150Z,5.7819
2019-05-17T00:11:20.888Z,5.7516
2019-05-17T00:11:30.544Z,5.7416
2019-05-17T00:11:41.246Z,5.7214
2019-05-17T00:11:49.936Z,5.7114
2019-05-17T00:11:59.570Z,5.6812
2019-05-17T00:12:11.420Z,5.6711
2019-05-17T00:12:19.944Z,5.6308
2019-05-17T00:12:29.589Z,5.6006
2019-05-17T00:12:40.535Z,5.5704
2019-05-17T00:12:50.227Z,5.5603
2019-05-17T00:13:00.890Z,5.4797
2019-05-17T00:13:14.509Z,5.4294
2019-05-17T00:13:20.010Z,5.4193
2019-05-17T00:13:29.718Z,5.3891
2019-05-17T00:13:40.386Z,5.3790
2019-05-17T00:13:50.098Z,5.3488
2019-05-17T00:13:59.766Z,5.3287
2019-05-17T00:14:11.595Z,5.2985
2019-05-17T00:14:21.289Z,5.2481
2019-05-17T00:14:30.946Z,5.2078
2019-05-17T00:14:40.638Z,5.1675
2019-05-17T00:14:50.308Z,5.1172
2019-05-17T00:15:00.066Z,5.0668
2019-05-17T00:15:09.739Z,5.0366
2019-05-17T00:15:21.815Z,5.0165
2019-05-17T00:15:31.517Z,4.9963
2019-05-17T00:15:41.166Z,5.0165
2019-05-17T00:16:00.576Z,5.0366
2019-05-17T00:16:11.470Z,5.0568
2019-05-17T00:16:21.161Z,5.0266
2019-05-17T00:16:30.822Z,4.9963
2019-05-17T00:16:40.528Z,4.9661
2019-05-17T00:16:50.246Z,4.9561
2019-05-17T00:16:59.905Z,4.9561
2019-05-17T00:17:09.560Z,4.9057
2019-05-17T00:17:20.215Z,4.8856
2019-05-17T00:17:29.920Z,4.8553
2019-05-17T00:17:39.576Z,4.8453
2019-05-17T00:17:50.246Z,4.8050
2019-05-17T00:18:00.892Z,4.7849
2019-05-17T00:18:10.547Z,4.7546
2019-05-17T00:18:20.288Z,4.7244
2019-05-17T00:18:30.010Z,4.7043
2019-05-17T00:18:39.671Z,4.6741
2019-05-17T00:19:00.234Z,4.6237
2019-05-17T00:19:10.906Z,4.5935
2019-05-17T00:19:21.550Z,4.5432
2019-05-17T00:19:31.236Z,4.5129
2019-05-17T00:19:40.920Z,4.5230
2019-05-17T00:20:01.412Z,4.4827
2019-05-17T00:20:11.099Z,4.4827
2019-05-17T00:20:20.786Z,4.4827
2019-05-17T00:20:30.455Z,4.4525
2019-05-17T00:20:41.126Z,4.4727
2019-05-17T00:21:01.698Z,4.4424
2019-05-17T00:21:11.380Z,4.4223
2019-05-17T00:21:19.898Z,4.4122
2019-05-17T00:21:29.610Z,4.4122
2019-05-17T00:22:00.991Z,4.3719
2019-05-17T00:22:10.672Z,4.3417
2019-05-17T00:22:20.330Z,4.3417
2019-05-17T00:22:29.989Z,4.3317
2019-05-17T00:22:39.670Z,4.3216
2019-05-17T00:23:00.180Z,4.3216
2019-05-17T00:23:10.858Z,4.2914
2019-05-17T00:23:20.540Z,4.2712
2019-05-17T00:23:30.200Z,4.2914
2019-05-17T00:23:40.147Z,4.2712
2019-05-17T00:24:00.677Z,4.3015
2019-05-17T00:24:10.357Z,4.3216
2019-05-17T00:24:20.078Z,4.3317
2019-05-17T00:24:30.748Z,4.3216
2019-05-17T00:24:40.520Z,4.3317
2019-05-17T00:25:01.101Z,4.3619
2019-05-17T00:25:10.796Z,4.3417
2019-05-17T00:25:20.486Z,4.3619
2019-05-17T00:25:30.182Z,4.3317
2019-05-17T00:25:40.907Z,4.3216
2019-05-17T00:26:01.420Z,4.2712
2019-05-17T00:26:11.128Z,4.2612
2019-05-17T00:26:20.825Z,4.2209
2019-05-17T00:26:31.488Z,4.1101
2019-05-17T00:26:41.146Z,4.1504
2019-05-17T00:26:50.897Z,4.1403
2019-05-17T00:27:00.585Z,4.1202
2019-05-17T00:27:10.269Z,4.1403
2019-05-17T00:27:19.956Z,4.0900
2019-05-17T00:27:29.656Z,4.1101
2019-05-17T00:27:50.166Z,4.1101
2019-05-17T00:27:59.886Z,4.0900
2019-05-17T00:28:09.581Z,4.0799
2019-05-17T00:28:21.461Z,4.0799
2019-05-17T00:28:31.739Z,4.0799
2019-05-17T00:28:41.420Z,4.0799
2019-05-17T00:28:49.936Z,4.0598
2019-05-17T00:28:59.778Z,4.0799
2019-05-17T00:29:11.622Z,4.0396
2019-05-17T00:29:21.340Z,4.0396
2019-05-17T00:29:39.662Z,4.0396
2019-05-17T00:29:51.490Z,4.0497
2019-05-17T00:30:01.146Z,4.0497
2019-05-17T00:30:10.820Z,4.0598
2019-05-17T00:30:20.609Z,4.0799
2019-05-17T00:30:30.280Z,4.0900
2019-05-17T00:30:41.479Z,4.1101
2019-05-17T00:30:59.870Z,4.1202
2019-05-17T00:31:11.696Z,4.1101
2019-05-17T00:31:20.196Z,4.1202
2019-05-17T00:31:29.846Z,4.0900
2019-05-17T00:31:41.666Z,4.0900
2019-05-17T00:31:51.405Z,4.0900
2019-05-17T00:32:01.060Z,4.0598
2019-05-17T00:32:10.764Z,4.0598
2019-05-17T00:32:20.405Z,4.0497
2019-05-17T00:32:30.096Z,4.0497
2019-05-17T00:32:39.778Z,4.0396
2019-05-17T00:32:51.616Z,4.0195
2019-05-17T00:33:00.162Z,4.0396
2019-05-17T00:33:09.820Z,3.9993
2019-05-17T00:33:21.646Z,3.9590
2019-05-17T00:33:31.298Z,3.9590
2019-05-17T00:33:40.997Z,3.9389
2019-05-17T00:33:50.670Z,3.9288
2019-05-17T00:34:00.326Z,3.9087
2019-05-17T00:34:10.026Z,3.9288
2019-05-17T00:34:20.868Z,3.9288
2019-05-17T00:34:31.526Z,3.9590
2019-05-17T00:34:41.230Z,3.9792
2019-05-17T00:35:00.162Z,4.0497
2019-05-17T00:35:09.795Z,4.0598
2019-05-17T00:35:21.665Z,4.0799
2019-05-17T00:35:41.005Z,4.0497
2019-05-17T00:35:49.646Z,4.0195
2019-05-17T00:36:01.459Z,4.0396
2019-05-17T00:36:11.118Z,4.0396
2019-05-17T00:36:20.755Z,3.9993
2019-05-17T00:36:31.411Z,3.9993
2019-05-17T00:36:39.893Z,3.9691
2019-05-17T00:36:49.582Z,3.9691
2019-05-17T00:37:07.058Z,3.9792
2019-05-17T00:37:10.953Z,3.9792
2019-05-17T00:37:19.782Z,3.9792
2019-05-17T00:37:31.579Z,3.9792
2019-05-17T00:37:40.270Z,3.9792
2019-05-17T00:37:50.059Z,3.9792
2019-05-17T00:37:59.748Z,3.9792
2019-05-17T00:38:11.550Z,3.9792
2019-05-17T00:38:21.236Z,3.9691
2019-05-17T00:38:48.109Z,3.9389
2019-05-17T00:38:52.109Z,3.9389
2019-05-17T00:39:00.773Z,3.9288
2019-05-17T00:39:10.409Z,3.9087
2019-05-17T00:39:20.049Z,3.9389
2019-05-17T00:39:42.695Z,3.9087
2019-05-17T00:39:50.204Z,3.8684
2019-05-17T00:40:10.719Z,3.8382
2019-05-17T00:40:20.374Z,3.8281
2019-05-17T00:40:30.059Z,3.7878
2019-05-17T00:40:40.709Z,3.7778
2019-05-17T00:40:50.360Z,3.7274
2019-05-17T00:40:59.991Z,3.7173
2019-05-17T00:41:09.646Z,3.6972
2019-05-17T00:41:21.479Z,3.6771
2019-05-17T00:41:31.121Z,3.6569
2019-05-17T00:41:40.849Z,3.6166
2019-05-17T00:41:50.598Z,3.6166
2019-05-17T00:42:00.223Z,3.6166
2019-05-17T00:42:09.918Z,3.5965
2019-05-17T00:42:19.600Z,3.5764
2019-05-17T00:42:31.458Z,3.5764
2019-05-17T00:42:40.141Z,3.5461
2019-05-17T00:42:49.809Z,3.5361
2019-05-17T00:43:01.643Z,3.5159
2019-05-17T00:43:10.328Z,3.5059
2019-05-17T00:43:19.999Z,3.4756
2019-05-17T00:43:29.636Z,3.4756
2019-05-17T00:43:41.468Z,3.4756
2019-05-17T00:43:51.158Z,3.4656
2019-05-17T00:44:02.091Z,3.4958
2019-05-17T00:44:09.588Z,3.4958
2019-05-17T00:44:21.399Z,3.4756
2019-05-17T00:44:31.048Z,3.4656
2019-05-17T00:44:39.578Z,3.4656
2019-05-17T00:44:51.409Z,3.4454
2019-05-17T00:45:01.079Z,3.4656
2019-05-17T00:45:10.761Z,3.4656
2019-05-17T00:45:20.489Z,3.4454
2019-05-17T00:45:31.209Z,3.3951
2019-05-17T00:45:40.872Z,3.3548
2019-05-17T00:45:50.519Z,3.3347
2019-05-17T00:46:00.161Z,3.3145
2019-05-17T00:46:09.809Z,3.3145
2019-05-17T00:46:31.328Z,3.3347
2019-05-17T00:46:46.586Z,3.3649
2019-05-17T00:46:50.790Z,3.3548
2019-05-17T00:46:59.811Z,3.3850
2019-05-17T00:47:10.650Z,3.3649
2019-05-17T00:47:21.343Z,3.3548
2019-05-17T00:47:31.066Z,3.3347
2019-05-17T00:47:40.720Z,3.3145
2019-05-17T00:47:50.374Z,3.3145
2019-05-17T00:48:00.101Z,3.2843
2019-05-17T00:48:10.837Z,3.2642
2019-05-17T00:48:21.650Z,3.2440
2019-05-17T00:48:30.294Z,3.2642
2019-05-17T00:48:39.969Z,3.2642
2019-05-17T00:48:49.721Z,3.2843
2019-05-17T00:49:01.688Z,3.2843
2019-05-17T00:49:20.017Z,3.2642
2019-05-17T00:49:30.741Z,3.2843
2019-05-17T00:49:40.657Z,3.2944
2019-05-17T00:49:50.340Z,3.3246
2019-05-17T00:50:00.020Z,3.3548
2019-05-17T00:50:10.719Z,3.3850
2019-05-17T00:50:19.691Z,3.4152
2019-05-17T00:50:31.530Z,3.4454
2019-05-17T00:50:41.196Z,3.5059
2019-05-17T00:50:53.246Z,3.5461
2019-05-17T00:51:02.159Z,3.6066
2019-05-17T00:51:11.151Z,3.6469
2019-05-17T00:51:20.836Z,3.6771
2019-05-17T00:51:30.467Z,3.6972
2019-05-17T00:51:40.146Z,3.7476
2019-05-17T00:51:49.780Z,3.7778
2019-05-17T00:52:01.645Z,3.8785
2019-05-17T00:52:11.337Z,3.9389
2019-05-17T00:52:21.007Z,3.9691
2019-05-17T00:52:31.719Z,3.9993
2019-05-17T00:52:41.368Z,4.0195
2019-05-17T00:52:51.031Z,4.0396
2019-05-17T00:53:00.677Z,4.0396
2019-05-17T00:53:10.500Z,4.0195
2019-05-17T00:53:20.450Z,3.9993
2019-05-17T00:53:30.141Z,3.9792
2019-05-17T00:53:39.867Z,3.9590
2019-05-17T00:53:50.544Z,3.9691
2019-05-17T00:54:01.371Z,3.9691
2019-05-17T00:54:11.026Z,3.9590
2019-05-17T00:54:20.977Z,3.9792
2019-05-17T00:54:30.689Z,4.0195
2019-05-17T00:54:41.496Z,4.0195
2019-05-17T00:54:51.148Z,4.0195
2019-05-17T00:55:00.823Z,4.0598
2019-05-17T00:55:10.491Z,4.0799
2019-05-17T00:55:20.156Z,4.2209
2019-05-17T00:55:29.797Z,4.1605
2019-05-17T00:55:41.647Z,4.2310
2019-05-17T00:55:51.337Z,4.2712
2019-05-17T00:56:02.012Z,4.3317
2019-05-17T00:56:11.683Z,4.3619
2019-05-17T00:56:21.317Z,4.4022
2019-05-17T00:56:31.009Z,4.4122
2019-05-17T00:56:40.686Z,4.4223
2019-05-17T00:56:50.370Z,4.4525
2019-05-17T00:57:00.111Z,4.5129
2019-05-17T00:57:09.769Z,4.5432
2019-05-17T00:57:21.600Z,4.6237
2019-05-17T00:57:30.277Z,4.6338
2019-05-17T00:57:39.926Z,4.7043
2019-05-17T00:57:49.613Z,4.6942
2019-05-17T00:58:10.130Z,4.7748
2019-05-17T00:58:19.798Z,4.7849
2019-05-17T00:58:31.659Z,4.8352
2019-05-17T00:58:41.442Z,4.9158
2019-05-17T00:58:51.527Z,4.9057
2019-05-17T00:59:10.929Z,4.9359
2019-05-17T00:59:20.600Z,4.9359
2019-05-17T00:59:30.240Z,4.9561
2019-05-17T00:59:39.906Z,4.9359
2019-05-17T00:59:51.750Z,4.9561
2019-05-17T01:00:10.147Z,4.9158
2019-05-17T01:00:19.808Z,4.9359
2019-05-17T01:00:32.710Z,4.9359
2019-05-17T01:00:40.318Z,4.9863
2019-05-17T01:00:49.986Z,4.9963
2019-05-17T01:00:59.642Z,5.0266
2019-05-17T01:01:11.470Z,5.0366
2019-05-17T01:01:21.118Z,5.0568
2019-05-17T01:01:30.789Z,5.0870
2019-05-17T01:01:40.468Z,5.1172
2019-05-17T01:01:50.088Z,5.1172
2019-05-17T01:01:59.788Z,5.1474
2019-05-17T01:02:11.611Z,5.2078
2019-05-17T01:02:21.298Z,5.2481
2019-05-17T01:02:30.971Z,5.2985
2019-05-17T01:02:40.683Z,5.3287
2019-05-17T01:02:50.322Z,5.3589
2019-05-17T01:03:01.128Z,5.3790
2019-05-17T01:03:10.802Z,5.3992
2019-05-17T01:03:20.471Z,5.4193
2019-05-17T01:03:31.331Z,5.4495
2019-05-17T01:03:39.851Z,5.4797
2019-05-17T01:03:49.752Z,5.4596
2019-05-17T01:04:02.597Z,5.4898
2019-05-17T01:04:10.143Z,5.4898
2019-05-17T01:04:20.988Z,5.4898
2019-05-17T01:04:30.661Z,5.4898
2019-05-17T01:04:41.322Z,5.4797
2019-05-17T01:04:50.960Z,5.4797
2019-05-17T01:05:00.658Z,5.4495
2019-05-17T01:05:11.506Z,5.4294
2019-05-17T01:05:20.182Z,5.4193
2019-05-17T01:05:29.841Z,5.4193
2019-05-17T01:05:41.810Z,5.3992
2019-05-17T01:05:50.834Z,5.4193
2019-05-17T01:06:00.674Z,5.4193
2019-05-17T01:06:11.608Z,5.4294
2019-05-17T01:06:20.122Z,5.4495
2019-05-17T01:06:30.772Z,5.4797
2019-05-17T01:06:41.406Z,5.4797
2019-05-17T01:06:51.210Z,5.4898
2019-05-17T01:07:01.162Z,5.5099
2019-05-17T01:07:09.660Z,5.5099
2019-05-17T01:07:30.218Z,5.5603
2019-05-17T01:07:39.900Z,5.5402
2019-05-17T01:07:49.865Z,5.5603
2019-05-17T01:08:01.688Z,5.5603
2019-05-17T01:08:11.368Z,5.5704
2019-05-17T01:08:19.898Z,5.5402
2019-05-17T01:08:29.568Z,5.5301
2019-05-17T01:08:41.412Z,5.5402
2019-05-17T01:09:01.094Z,5.5301
2019-05-17T01:09:04.123Z,5.4898
2019-05-17T01:09:09.581Z,5.5301
2019-05-17T01:09:21.404Z,5.5099
2019-05-17T01:09:31.053Z,5.5301
2019-05-17T01:09:39.767Z,5.5301
2019-05-17T01:09:51.864Z,5.4898
2019-05-17T01:10:01.533Z,5.4898
2019-05-17T01:10:11.180Z,5.4596
2019-05-17T01:10:20.884Z,5.4596
2019-05-17T01:10:30.594Z,5.4193
2019-05-17T01:10:40.296Z,5.3790
2019-05-17T01:10:49.975Z,5.3589
2019-05-17T01:10:59.618Z,5.3488
2019-05-17T01:11:11.446Z,5.3589
2019-05-17T01:11:22.118Z,5.3992
2019-05-17T01:11:30.818Z,5.4294
2019-05-17T01:11:40.504Z,5.4294
2019-05-17T01:11:50.148Z,5.4495
2019-05-17T01:11:59.776Z,5.4596
2019-05-17T01:12:20.336Z,5.4898
2019-05-17T01:12:31.164Z,5.4898
2019-05-17T01:12:41.144Z,5.4898
2019-05-17T01:12:50.844Z,5.5099
2019-05-17T01:13:00.583Z,5.5099
2019-05-17T01:13:10.542Z,5.4898
2019-05-17T01:13:20.234Z,5.5099
2019-05-17T01:13:29.928Z,5.5402
2019-05-17T01:13:39.575Z,5.5301
2019-05-17T01:13:50.665Z,5.5603
2019-05-17T01:14:00.336Z,5.5402
2019-05-17T01:14:11.464Z,5.5301
2019-05-17T01:14:21.150Z,5.5301
2019-05-17T01:14:29.646Z,5.5402
2019-05-17T01:14:41.544Z,5.5099
2019-05-17T01:14:51.237Z,5.5099
2019-05-17T01:15:00.923Z,5.5099
2019-05-17T01:15:11.618Z,5.4898
2019-05-17T01:15:21.339Z,5.5099
2019-05-17T01:15:29.986Z,5.4898
2019-05-17T01:15:40.646Z,5.5099
2019-05-17T01:15:50.286Z,5.5099
2019-05-17T01:15:59.944Z,5.5603
2019-05-17T01:16:10.818Z,5.5402
2019-05-17T01:16:20.504Z,5.5603
2019-05-17T01:16:30.204Z,5.5301
2019-05-17T01:16:39.939Z,5.5099
2019-05-17T01:16:52.810Z,5.4898
2019-05-17T01:17:11.503Z,5.4193
2019-05-17T01:17:21.152Z,5.3992
2019-05-17T01:17:30.803Z,5.3790
2019-05-17T01:17:40.475Z,5.3589
2019-05-17T01:17:51.333Z,5.3589
2019-05-17T01:18:00.998Z,5.3589
2019-05-17T01:18:19.844Z,5.3790
2019-05-17T01:19:16.427Z,5.4193
2019-05-17T01:19:16.427Z,5.3992
2019-05-17T01:19:40.730Z,5.4294
2019-05-17T01:20:36.941Z,5.3790
2019-05-17T01:20:36.941Z,5.4294
2019-05-17T01:20:40.411Z,5.3992
2019-05-17T01:20:43.569Z,5.3992
2019-05-17T01:21:08.579Z,5.3891
2019-05-17T01:21:11.735Z,5.3790
2019-05-17T01:21:31.018Z,5.3891
2019-05-17T01:21:40.683Z,5.3992
2019-05-17T01:21:51.304Z,5.4193
2019-05-17T01:22:00.969Z,5.4294
2019-05-17T01:22:20.648Z,5.4596
2019-05-17T01:22:30.278Z,5.4596
2019-05-17T01:22:39.974Z,5.4495
2019-05-17T01:22:49.620Z,5.4294
2019-05-17T01:23:00.264Z,5.4193
2019-05-17T01:23:09.904Z,5.3992
2019-05-17T01:23:19.610Z,5.3891
2019-05-17T01:23:40.378Z,5.3488
2019-05-17T01:23:50.036Z,5.3488
2019-05-17T01:24:00.945Z,5.2985
2019-05-17T01:24:10.626Z,5.2682
2019-05-17T01:24:20.334Z,5.2380
2019-05-17T01:24:30.018Z,5.2179
2019-05-17T01:24:39.674Z,5.1978
2019-05-17T01:24:51.533Z,5.1675
2019-05-17T01:25:01.174Z,5.1474
2019-05-17T01:25:09.680Z,5.1474
2019-05-17T01:25:20.344Z,5.1675
2019-05-17T01:25:30.014Z,5.1675
2019-05-17T01:25:39.714Z,5.2380
2019-05-17T01:25:51.594Z,5.1776
2019-05-17T01:26:01.274Z,5.1776
2019-05-17T01:26:10.953Z,5.2078
2019-05-17T01:26:20.632Z,5.2380
2019-05-17T01:26:30.297Z,5.2179
2019-05-17T01:26:39.992Z,5.2380
2019-05-17T01:26:49.654Z,5.2380
2019-05-17T01:27:01.476Z,5.1776
2019-05-17T01:27:10.164Z,5.2078
2019-05-17T01:27:19.829Z,5.2078
2019-05-17T01:27:30.515Z,5.2682
2019-05-17T01:27:39.572Z,5.2481
2019-05-17T01:27:51.368Z,5.2481
2019-05-17T01:28:01.038Z,5.2783
2019-05-17T01:28:21.538Z,5.2985
2019-05-17T01:28:30.205Z,5.2783
2019-05-17T01:28:39.888Z,5.2985
2019-05-17T01:28:49.564Z,5.2985
2019-05-17T01:29:01.388Z,5.2985
2019-05-17T01:29:11.048Z,5.2783
2019-05-17T01:29:21.705Z,5.2985
2019-05-17T01:29:31.402Z,5.2682
2019-05-17T01:29:41.383Z,5.2380
2019-05-17T01:29:51.075Z,5.2380
2019-05-17T01:30:00.787Z,5.2179
2019-05-17T01:30:10.438Z,5.2380
2019-05-17T01:30:20.086Z,5.2380
2019-05-17T01:30:29.716Z,5.2179
2019-05-17T01:30:40.402Z,5.2380
2019-05-17T01:30:50.098Z,5.2481
2019-05-17T01:30:59.767Z,5.2682
2019-05-17T01:31:11.604Z,5.2682
2019-05-17T01:31:21.268Z,5.2481
2019-05-17T01:31:29.787Z,5.2481
2019-05-17T01:31:40.444Z,5.2481
2019-05-17T01:31:50.104Z,5.2481
2019-05-17T01:32:00.764Z,5.2481
2019-05-17T01:32:10.408Z,5.2380
2019-05-17T01:32:20.134Z,5.2179
2019-05-17T01:32:29.795Z,5.2179
2019-05-17T01:32:41.678Z,5.2380
2019-05-17T01:32:57.015Z,5.2682
2019-05-17T01:33:00.870Z,5.2682
2019-05-17T01:33:09.670Z,5.2985
2019-05-17T01:33:21.469Z,5.3488
2019-05-17T01:33:31.158Z,5.3488
2019-05-17T01:33:40.799Z,5.3589
2019-05-17T01:33:50.441Z,5.3891
2019-05-17T01:34:00.075Z,5.3790
2019-05-17T01:34:10.729Z,5.3992
2019-05-17T01:34:20.369Z,5.4193
2019-05-17T01:34:29.989Z,5.3891
2019-05-17T01:34:39.640Z,5.3589
2019-05-17T01:34:51.484Z,5.3589
2019-05-17T01:35:01.129Z,5.3287
2019-05-17T01:35:10.863Z,5.3085
2019-05-17T01:35:21.586Z,5.3085
2019-05-17T01:35:39.923Z,5.2481
2019-05-17T01:35:49.610Z,5.2380
2019-05-17T01:36:01.407Z,5.1474
2019-05-17T01:36:11.070Z,5.1474
2019-05-17T01:36:20.719Z,5.1675
2019-05-17T01:36:31.369Z,5.1675
2019-05-17T01:36:41.040Z,5.1474
2019-05-17T01:36:50.709Z,5.1675
2019-05-17T01:37:00.363Z,5.1675
2019-05-17T01:37:10.029Z,5.1675
2019-05-17T01:37:19.729Z,5.1776
2019-05-17T01:37:31.569Z,5.1776
2019-05-17T01:37:40.275Z,5.1978
2019-05-17T01:37:50.008Z,5.2078
2019-05-17T01:38:00.839Z,5.2179
2019-05-17T01:38:10.509Z,5.2179
2019-05-17T01:38:20.209Z,5.2078
2019-05-17T01:38:31.131Z,5.2179
2019-05-17T01:38:40.818Z,5.1978
2019-05-17T01:38:51.509Z,5.1978
2019-05-17T01:39:00.039Z,5.1776
2019-05-17T01:39:17.696Z,5.1675
2019-05-17T01:39:21.582Z,5.1273
2019-05-17T01:39:33.527Z,5.0970
2019-05-17T01:39:41.151Z,5.0668
2019-05-17T01:39:50.848Z,5.0568
2019-05-17T01:40:00.512Z,5.0568
2019-05-17T01:40:12.337Z,5.0668
2019-05-17T01:40:19.848Z,5.0668
2019-05-17T01:40:31.651Z,5.0970
2019-05-17T01:40:41.376Z,5.1172
2019-05-17T01:40:51.048Z,5.0366
2019-05-17T01:41:00.700Z,5.1273
2019-05-17T01:41:10.366Z,5.1273
2019-05-17T01:41:20.021Z,5.1474
2019-05-17T01:41:30.857Z,5.1675
2019-05-17T01:41:40.558Z,5.2078
2019-05-17T01:41:51.209Z,5.2380
2019-05-17T01:42:00.862Z,5.2682
2019-05-17T01:42:10.528Z,5.3085
2019-05-17T01:42:20.202Z,5.3085
2019-05-17T01:42:29.852Z,5.3085
2019-05-17T01:42:41.661Z,5.3287
2019-05-17T01:42:51.373Z,5.3085
2019-05-17T01:43:01.038Z,5.2985
2019-05-17T01:43:10.703Z,5.2783
2019-05-17T01:43:20.437Z,5.2985
2019-05-17T01:43:30.099Z,5.2985
2019-05-17T01:43:39.787Z,5.3085
2019-05-17T01:43:49.568Z,5.3085
2019-05-17T01:44:01.390Z,5.3085
2019-05-17T01:44:11.098Z,5.3085
2019-05-17T01:44:20.813Z,5.2783
2019-05-17T01:44:30.479Z,5.2783
2019-05-17T01:44:40.128Z,5.2985
2019-05-17T01:44:49.758Z,5.2783
2019-05-17T01:45:01.608Z,5.2783
2019-05-17T01:45:11.327Z,5.2985
2019-05-17T01:45:21.018Z,5.2985
2019-05-17T01:45:30.683Z,5.2783
2019-05-17T01:45:40.352Z,5.2985
2019-05-17T01:45:50.058Z,5.3287
2019-05-17T01:46:00.727Z,5.3589
2019-05-17T01:46:10.402Z,5.3488
2019-05-17T01:46:20.070Z,5.3589
2019-05-17T01:46:29.733Z,5.3589
2019-05-17T01:46:41.563Z,5.3488
2019-05-17T01:46:51.212Z,5.3287
2019-05-17T01:47:00.883Z,5.2985
2019-05-17T01:47:10.530Z,5.2783
2019-05-17T01:47:20.228Z,5.2481
2019-05-17T01:47:29.890Z,5.2783
2019-05-17T01:47:41.731Z,5.2985
2019-05-17T01:47:50.228Z,5.2985
2019-05-17T01:48:00.927Z,5.3488
2019-05-17T01:48:10.608Z,5.3790
2019-05-17T01:48:20.247Z,5.3891
2019-05-17T01:48:29.916Z,5.3891
2019-05-17T01:48:39.568Z,5.3891
2019-05-17T01:48:51.541Z,5.3790
2019-05-17T01:49:01.214Z,5.3790
2019-05-17T01:49:10.868Z,5.3589
2019-05-17T01:49:21.151Z,5.3488
2019-05-17T01:49:29.621Z,5.3488
2019-05-17T01:49:41.452Z,5.3287
2019-05-17T01:49:51.071Z,5.3085
2019-05-17T01:50:00.722Z,5.2985
2019-05-17T01:50:10.371Z,5.2682
2019-05-17T01:50:19.996Z,5.2380
2019-05-17T01:50:29.652Z,5.2179
2019-05-17T01:50:41.501Z,5.2078
2019-05-17T01:50:51.154Z,5.2078
2019-05-17T01:51:00.801Z,5.1978
2019-05-17T01:51:10.543Z,5.1978
2019-05-17T01:51:20.226Z,5.1675
2019-05-17T01:51:29.885Z,5.1675
2019-05-17T01:51:39.574Z,5.1474
2019-05-17T01:51:51.432Z,5.1474
2019-05-17T01:52:01.072Z,5.1474
2019-05-17T01:52:10.711Z,5.1675
2019-05-17T01:52:31.192Z,5.1776
2019-05-17T01:52:40.842Z,5.1978
2019-05-17T01:52:50.511Z,5.1978
2019-05-17T01:53:00.150Z,5.1776
2019-05-17T01:53:10.824Z,5.2078
2019-05-17T01:53:20.471Z,5.1675
2019-05-17T01:53:30.171Z,5.1675
2019-05-17T01:53:39.876Z,5.1474
2019-05-17T01:54:01.403Z,5.0870
2019-05-17T01:54:11.051Z,5.0870
2019-05-17T01:54:20.729Z,5.0668
2019-05-17T01:54:30.373Z,5.0366
2019-05-17T01:54:42.012Z,5.0568
2019-05-17T01:54:51.682Z,5.0668
2019-05-17T01:55:01.302Z,5.0870
2019-05-17T01:55:10.968Z,5.0870
2019-05-17T01:55:20.619Z,5.1474
2019-05-17T01:55:30.271Z,5.1776
2019-05-17T01:55:39.940Z,5.1978
2019-05-17T01:55:50.841Z,5.2380
2019-05-17T01:56:00.524Z,5.2481
2019-05-17T01:56:10.208Z,5.2481
2019-05-17T01:56:20.902Z,5.2380
2019-05-17T01:56:31.580Z,5.2481
2019-05-17T01:56:41.272Z,5.2380
2019-05-17T01:56:56.518Z,5.2179
2019-05-17T01:57:00.498Z,5.2179
2019-05-17T01:57:10.468Z,5.2078
2019-05-17T01:57:20.108Z,5.1978
2019-05-17T01:57:29.737Z,5.1675
2019-05-17T01:57:41.552Z,5.1675
2019-05-17T01:57:50.051Z,5.1675
2019-05-17T01:57:59.695Z,5.1675
2019-05-17T01:58:11.516Z,5.1978
2019-05-17T01:58:21.166Z,5.1776
2019-05-17T01:58:29.799Z,5.2078
2019-05-17T01:58:41.640Z,5.1776
2019-05-17T01:58:52.420Z,5.1776
2019-05-17T01:58:59.915Z,5.1675
2019-05-17T01:59:09.581Z,5.1172
2019-05-17T01:59:21.695Z,5.0568
2019-05-17T01:59:31.379Z,5.0165
2019-05-17T01:59:41.056Z,4.9661
2019-05-17T01:59:50.735Z,4.9158
2019-05-17T02:00:00.426Z,4.8755
2019-05-17T02:00:10.058Z,4.8352
2019-05-17T02:00:19.726Z,4.8050
2019-05-17T02:00:31.570Z,4.7345
2019-05-17T02:00:41.248Z,4.7546
2019-05-17T02:00:50.960Z,4.7244
2019-05-17T02:00:59.626Z,4.6942
2019-05-17T02:01:11.475Z,4.6640
2019-05-17T02:01:21.215Z,4.6338
2019-05-17T02:01:30.885Z,4.6338
2019-05-17T02:01:40.526Z,4.6237
2019-05-17T02:01:50.190Z,4.6237
2019-05-17T02:01:59.875Z,4.5935
2019-05-17T02:02:11.716Z,4.6036
2019-05-17T02:02:21.396Z,4.5935
2019-05-17T02:02:31.101Z,4.5834
2019-05-17T02:02:40.796Z,4.5834
2019-05-17T02:02:50.521Z,4.5532
2019-05-17T02:03:00.199Z,4.5432
2019-05-17T02:03:09.915Z,4.5230
2019-05-17T02:03:19.592Z,4.5432
2019-05-17T02:03:40.714Z,4.5129
2019-05-17T02:03:50.415Z,4.5029
2019-05-17T02:04:00.064Z,4.5129
2019-05-17T02:04:09.727Z,4.5029
2019-05-17T02:04:21.594Z,4.4827
2019-05-17T02:04:32.268Z,4.4827
2019-05-17T02:04:39.758Z,4.4827
2019-05-17T02:04:50.027Z,4.5029
2019-05-17T02:05:00.694Z,4.5432
2019-05-17T02:05:10.336Z,4.5834
2019-05-17T02:05:19.998Z,4.5935
2019-05-17T02:05:30.670Z,4.6036
2019-05-17T02:05:40.347Z,4.6237
2019-05-17T02:06:01.441Z,4.6640
2019-05-17T02:06:10.101Z,4.6741
2019-05-17T02:06:19.773Z,4.7043
2019-05-17T02:06:31.594Z,4.6942
2019-05-17T02:06:41.283Z,4.7043
2019-05-17T02:06:50.954Z,4.7043
2019-05-17T02:07:00.626Z,4.7244
2019-05-17T02:07:10.281Z,4.7244
2019-05-17T02:07:26.755Z,4.7345
2019-05-17T02:07:41.069Z,4.7748
2019-05-17T02:07:50.732Z,4.8050
2019-05-17T02:08:01.386Z,4.8050
2019-05-17T02:08:09.926Z,4.8050
2019-05-17T02:08:19.580Z,4.7849
2019-05-17T02:08:31.427Z,4.7849
2019-05-17T02:08:41.077Z,4.7546
2019-05-17T02:08:50.733Z,4.7546
2019-05-17T02:09:00.410Z,4.7345
2019-05-17T02:09:10.060Z,4.7244
2019-05-17T02:09:34.959Z,4.7043
2019-05-17T02:09:37.349Z,4.7043
2019-05-17T02:09:41.775Z,4.6741
2019-05-17T02:09:51.678Z,4.6640
2019-05-17T02:10:01.341Z,4.6539
2019-05-17T02:10:10.979Z,4.6539
2019-05-17T02:10:19.630Z,4.6338
2019-05-17T02:10:40.188Z,4.6237
2019-05-17T02:10:49.825Z,4.6237
2019-05-17T02:10:59.556Z,4.6237
2019-05-17T02:11:11.390Z,4.6338
2019-05-17T02:11:21.082Z,4.6338
2019-05-17T02:11:30.773Z,4.6539
2019-05-17T02:11:40.455Z,4.6539
2019-05-17T02:11:50.137Z,4.6640
2019-05-17T02:11:59.797Z,4.6640
2019-05-17T02:12:11.686Z,4.6640
2019-05-17T02:12:21.370Z,4.6539
2019-05-17T02:12:29.850Z,4.6338
2019-05-17T02:12:41.706Z,4.6338
2019-05-17T02:12:51.385Z,4.6237
2019-05-17T02:13:00.102Z,4.6539
2019-05-17T02:13:09.741Z,4.6539